Time;durP1;ratioP1;P1;durP2;ratioP2;P2;SDS_P1;SDS_P2;PMS_P1;PMS_P2;Temp;Humidity;BMP_temperature;BMP_pressure;BME280_temperature;BME280_humidity;BME280_pressure;Samples;Min_cycle;Max_cycle;Signal;HPM_P1;HPM_P2
2022/03/15 00:01:49;;;;;;;;;;;6.20;99.90;;;;;;8408904;28;19940;-69
2022/03/15 00:05:51;;;;;;;;;;;6.20;99.90;;;;;;8413434;28;20283;-69
2022/03/15 00:09:53;;;;;;;;;;;6.20;99.90;;;;;;8418501;28;19928;-69
2022/03/15 00:13:57;;;;;;;;;;;6.10;99.90;;;;;;8415365;28;20294;-68
2022/03/15 00:17:59;;;;;;;;;;;6.10;99.90;;;;;;8416661;28;20224;-68
2022/03/15 00:22:04;;;;;;;;;;;6.10;99.90;;;;;;8405951;28;20527;-69
2022/03/15 00:26:06;;;;;;;;;;;6.00;99.90;;;;;;8429556;28;20007;-69
2022/03/15 00:30:08;;;;;;;;;;;6.00;99.90;;;;;;8416614;28;19930;-68
2022/03/15 00:34:10;;;;;;;;;;;6.00;99.90;;;;;;8412125;28;19924;-69
2022/03/15 00:38:11;;;;;;;;;;;6.00;99.90;;;;;;8396130;28;20569;-69
2022/03/15 00:42:13;;;;;;;;;;;6.00;99.90;;;;;;8418603;28;19931;-68
2022/03/15 00:46:15;;;;;;;;;;;6.00;99.90;;;;;;8398792;28;20318;-68
2022/03/15 00:50:17;;;;;;;;;;;6.00;99.90;;;;;;8398736;28;19935;-69
2022/03/15 00:54:18;;;;;;;;;;;6.10;99.90;;;;;;8415599;28;20271;-69
2022/03/15 00:58:20;;;;;;;;;;;6.10;99.90;;;;;;8424167;28;20379;-69
2022/03/15 01:02:22;;;;;;;;;;;6.10;99.90;;;;;;8409430;28;19928;-68
2022/03/15 01:06:23;;;;;;;;;;;6.10;99.90;;;;;;8425844;28;19920;-69
2022/03/15 01:10:25;;;;;;;;;;;6.10;99.90;;;;;;8394735;28;19964;-68
2022/03/15 01:14:27;;;;;;;;;;;6.00;99.90;;;;;;8391912;28;19950;-69
2022/03/15 01:18:30;;;;;;;;;;;6.00;99.90;;;;;;8421459;28;20375;-69
2022/03/15 01:22:32;;;;;;;;;;;5.90;99.90;;;;;;8413587;28;19920;-68
2022/03/15 01:26:33;;;;;;;;;;;5.90;99.90;;;;;;8423390;28;19995;-69
2022/03/15 01:30:36;;;;;;;;;;;5.80;99.90;;;;;;8400221;28;19939;-68
2022/03/15 01:34:37;;;;;;;;;;;5.80;99.90;;;;;;8392257;28;19920;-68
2022/03/15 01:38:39;;;;;;;;;;;5.80;99.90;;;;;;8399108;28;20737;-68
2022/03/15 01:42:41;;;;;;;;;;;5.70;99.90;;;;;;8415181;28;19920;-69
2022/03/15 01:46:44;;;;;;;;;;;5.80;99.90;;;;;;8429190;28;19920;-69
2022/03/15 01:50:45;;;;;;;;;;;5.80;99.90;;;;;;8415649;28;19924;-69
2022/03/15 01:54:47;;;;;;;;;;;5.80;99.90;;;;;;8407479;28;19927;-68
2022/03/15 01:58:49;;;;;;;;;;;5.90;99.90;;;;;;8404138;28;19920;-69
2022/03/15 02:02:50;;;;;;;;;;;5.90;99.90;;;;;;8410913;28;19928;-69
2022/03/15 02:07:06;;;;;;;;;;;6.00;99.90;;;;;;8410993;28;20034;-69
2022/03/15 02:11:08;;;;;;;;;;;6.00;99.90;;;;;;8407829;28;20276;-69
2022/03/15 02:15:10;;;;;;;;;;;6.10;99.90;;;;;;8405844;28;19920;-68
2022/03/15 02:19:12;;;;;;;;;;;6.20;99.90;;;;;;8405148;28;20283;-68
2022/03/15 02:23:16;;;;;;;;;;;6.20;99.90;;;;;;8416441;28;20275;-68
2022/03/15 02:27:23;;;;;;;;;;;6.30;99.90;;;;;;8393019;28;19935;-68
2022/03/15 02:31:25;;;;;;;;;;;6.40;99.90;;;;;;8410565;28;20296;-68
2022/03/15 02:35:27;;;;;;;;;;;6.40;99.90;;;;;;8422550;28;19941;-68
2022/03/15 02:39:28;;;;;;;;;;;6.40;99.90;;;;;;8407484;28;19927;-69
2022/03/15 02:43:31;;;;;;;;;;;6.50;99.90;;;;;;8415630;28;20027;-69
2022/03/15 02:47:32;;;;;;;;;;;6.60;99.90;;;;;;8396455;28;19939;-69
2022/03/15 02:51:34;;;;;;;;;;;6.60;99.90;;;;;;8385812;28;19920;-68
2022/03/15 02:55:36;;;;;;;;;;;6.60;99.90;;;;;;8413577;28;19932;-68
2022/03/15 02:59:42;;;;;;;;;;;6.70;99.90;;;;;;8410630;28;19936;-68
2022/03/15 03:03:44;;;;;;;;;;;6.70;99.90;;;;;;8413044;28;19966;-69
2022/03/15 03:07:46;;;;;;;;;;;6.70;99.90;;;;;;8416676;28;19920;-69
2022/03/15 03:11:48;;;;;;;;;;;6.70;99.90;;;;;;8394277;28;19920;-69
2022/03/15 03:15:49;;;;;;;;;;;6.70;99.90;;;;;;8383478;28;19920;-69
2022/03/15 03:19:51;;;;;;;;;;;6.80;99.90;;;;;;8405819;28;19920;-69
2022/03/15 03:23:53;;;;;;;;;;;6.80;99.90;;;;;;8409867;28;19947;-68
2022/03/15 03:27:55;;;;;;;;;;;6.80;99.90;;;;;;8415044;28;19924;-69
2022/03/15 03:31:57;;;;;;;;;;;6.80;99.90;;;;;;8412012;28;20355;-69
2022/03/15 03:35:59;;;;;;;;;;;6.90;99.90;;;;;;8419577;28;19942;-68
2022/03/15 03:40:07;;;;;;;;;;;6.90;99.90;;;;;;8424803;28;19921;-69
2022/03/15 03:44:08;;;;;;;;;;;6.90;99.90;;;;;;8416301;28;19924;-69
2022/03/15 03:48:10;;;;;;;;;;;6.90;99.90;;;;;;8404945;28;19935;-68
2022/03/15 03:52:12;;;;;;;;;;;6.90;99.90;;;;;;8417973;28;21677;-69
2022/03/15 03:56:15;;;;;;;;;;;7.00;99.90;;;;;;8419577;28;20445;-69
2022/03/15 04:00:17;;;;;;;;;;;7.00;99.90;;;;;;8416124;28;19924;-69
2022/03/15 04:04:18;;;;;;;;;;;7.00;99.90;;;;;;8403124;28;20299;-69
2022/03/15 04:08:20;;;;;;;;;;;6.90;99.90;;;;;;8411321;28;19931;-68
2022/03/15 04:12:22;;;;;;;;;;;6.90;99.90;;;;;;8416026;28;19928;-69
2022/03/15 04:16:23;;;;;;;;;;;6.90;99.90;;;;;;8417829;28;20232;-68
2022/03/15 04:20:25;;;;;;;;;;;6.90;99.90;;;;;;8415694;28;20367;-69
2022/03/15 04:24:27;;;;;;;;;;;6.80;99.90;;;;;;8419564;28;19927;-69
2022/03/15 04:28:29;;;;;;;;;;;6.90;99.90;;;;;;8420663;28;19931;-69
2022/03/15 04:32:30;;;;;;;;;;;6.80;99.90;;;;;;8430104;28;19920;-69
2022/03/15 04:36:35;;;;;;;;;;;6.80;99.90;;;;;;8425526;28;19920;-69
2022/03/15 04:40:36;;;;;;;;;;;6.80;99.90;;;;;;8410561;28;19968;-69
2022/03/15 04:44:38;;;;;;;;;;;6.80;99.90;;;;;;8391203;28;19920;-68
2022/03/15 04:48:39;;;;;;;;;;;6.80;99.90;;;;;;8412121;28;19920;-69
2022/03/15 04:52:41;;;;;;;;;;;6.80;99.90;;;;;;8417045;28;20316;-69
2022/03/15 04:56:43;;;;;;;;;;;6.80;99.90;;;;;;8413445;28;20380;-68
2022/03/15 05:00:44;;;;;;;;;;;6.70;99.90;;;;;;8409529;28;20284;-68
2022/03/15 05:04:46;;;;;;;;;;;6.70;99.90;;;;;;8410092;28;20295;-68
2022/03/15 05:08:48;;;;;;;;;;;6.70;99.90;;;;;;8414743;28;19923;-68
2022/03/15 05:12:50;;;;;;;;;;;6.70;99.90;;;;;;8399666;28;20398;-68
2022/03/15 05:16:51;;;;;;;;;;;6.70;99.90;;;;;;8417249;28;19920;-68
2022/03/15 05:20:53;;;;;;;;;;;6.70;99.90;;;;;;8424464;28;19962;-68
2022/03/15 05:24:55;;;;;;;;;;;6.70;99.90;;;;;;8417435;28;19919;-68
2022/03/15 05:28:56;;;;;;;;;;;6.60;99.90;;;;;;8414388;28;19935;-68
2022/03/15 05:32:58;;;;;;;;;;;6.60;99.90;;;;;;8424138;28;19920;-68
2022/03/15 05:37:00;;;;;;;;;;;6.60;99.90;;;;;;8412916;28;19924;-69
2022/03/15 05:41:01;;;;;;;;;;;6.60;99.90;;;;;;8397643;28;20315;-68
2022/03/15 05:45:25;;;;;;;;;;;6.60;99.90;;;;;;8432706;28;20283;-68
2022/03/15 05:49:27;;;;;;;;;;;6.70;99.90;;;;;;8399386;28;20291;-68
2022/03/15 05:53:33;;;;;;;;;;;6.70;99.90;;;;;;8413802;28;19977;-68
2022/03/15 05:57:34;;;;;;;;;;;6.70;99.90;;;;;;8418090;28;20223;-68
2022/03/15 06:01:36;;;;;;;;;;;6.70;99.90;;;;;;8384628;28;19924;-68
2022/03/15 06:05:38;;;;;;;;;;;6.70;99.90;;;;;;8410059;28;19932;-68
2022/03/15 06:09:40;;;;;;;;;;;6.70;99.90;;;;;;8411641;28;19928;-68
2022/03/15 06:13:41;;;;;;;;;;;6.70;99.90;;;;;;8401582;28;19972;-68
2022/03/15 06:17:44;;;;;;;;;;;6.70;99.90;;;;;;8426302;28;19972;-68
2022/03/15 06:21:46;;;;;;;;;;;6.70;99.90;;;;;;8425793;28;19924;-68
2022/03/15 06:25:48;;;;;;;;;;;6.70;99.90;;;;;;8407157;28;19937;-68
2022/03/15 06:29:51;;;;;;;;;;;6.70;99.90;;;;;;8398205;28;19924;-68
2022/03/15 06:33:53;;;;;;;;;;;6.70;99.90;;;;;;8415767;28;19924;-68
2022/03/15 06:37:55;;;;;;;;;;;6.80;99.90;;;;;;8421805;28;19925;-68
2022/03/15 06:41:58;;;;;;;;;;;6.80;99.90;;;;;;8418212;28;20346;-68
2022/03/15 06:45:59;;;;;;;;;;;6.80;99.90;;;;;;8426623;28;19924;-68
2022/03/15 06:50:02;;;;;;;;;;;6.80;99.90;;;;;;8407988;28;19975;-68
2022/03/15 06:54:04;;;;;;;;;;;6.80;99.90;;;;;;8413259;28;19924;-68
2022/03/15 06:58:05;;;;;;;;;;;6.90;99.90;;;;;;8418629;28;20394;-68
2022/03/15 07:02:07;;;;;;;;;;;6.90;99.90;;;;;;8408946;28;20133;-68
2022/03/15 07:06:09;;;;;;;;;;;6.90;99.90;;;;;;8412677;28;19932;-68
2022/03/15 07:10:12;;;;;;;;;;;7.00;99.90;;;;;;8422473;28;19924;-68
2022/03/15 07:14:13;;;;;;;;;;;7.00;99.90;;;;;;8402479;28;19935;-68
2022/03/15 07:18:16;;;;;;;;;;;7.10;99.90;;;;;;8428065;28;19924;-68
2022/03/15 07:22:17;;;;;;;;;;;7.10;99.90;;;;;;8426935;28;19924;-68
2022/03/15 07:26:19;;;;;;;;;;;7.10;99.90;;;;;;8430000;28;20000;-68
2022/03/15 07:30:21;;;;;;;;;;;7.20;99.90;;;;;;8422674;28;20331;-68
2022/03/15 07:34:22;;;;;;;;;;;7.20;99.90;;;;;;8398694;28;20418;-68
2022/03/15 07:38:24;;;;;;;;;;;7.30;99.90;;;;;;8426236;28;19932;-68
2022/03/15 07:42:26;;;;;;;;;;;7.30;99.90;;;;;;8405228;28;19951;-68
2022/03/15 07:46:27;;;;;;;;;;;7.30;99.90;;;;;;8412140;28;19939;-68
2022/03/15 07:50:29;;;;;;;;;;;7.30;99.90;;;;;;8419876;28;19963;-68
2022/03/15 07:54:31;;;;;;;;;;;7.40;99.90;;;;;;8403246;28;19924;-68
2022/03/15 07:58:33;;;;;;;;;;;7.40;99.90;;;;;;8403889;28;20280;-68
2022/03/15 08:02:34;;;;;;;;;;;7.50;99.90;;;;;;8424574;28;19924;-68
2022/03/15 08:06:39;;;;;;;;;;;7.50;99.90;;;;;;8430270;28;20269;-68
2022/03/15 08:10:41;;;;;;;;;;;7.60;99.90;;;;;;8409828;28;19924;-68
2022/03/15 08:14:43;;;;;;;;;;;7.60;99.90;;;;;;8413285;28;19924;-68
2022/03/15 08:18:45;;;;;;;;;;;7.70;99.90;;;;;;8424371;28;19980;-68
2022/03/15 08:22:47;;;;;;;;;;;7.70;99.90;;;;;;8399014;28;19947;-68
2022/03/15 08:26:49;;;;;;;;;;;7.80;99.90;;;;;;8425210;28;19932;-68
2022/03/15 08:30:51;;;;;;;;;;;7.90;99.90;;;;;;8418209;28;19928;-68
2022/03/15 08:34:53;;;;;;;;;;;7.90;99.90;;;;;;8391321;28;20412;-68
2022/03/15 08:38:56;;;;;;;;;;;8.00;99.90;;;;;;8393453;28;20034;-68
2022/03/15 08:42:57;;;;;;;;;;;8.00;99.90;;;;;;8378898;28;19932;-68
2022/03/15 08:46:59;;;;;;;;;;;8.10;99.90;;;;;;8398149;28;19935;-68
2022/03/15 08:51:01;;;;;;;;;;;8.10;99.90;;;;;;8384774;28;19925;-68
2022/03/15 08:55:03;;;;;;;;;;;8.20;99.90;;;;;;8390588;28;19932;-68
2022/03/15 08:59:05;;;;;;;;;;;8.20;99.90;;;;;;8381063;28;20395;-68
2022/03/15 09:03:07;;;;;;;;;;;8.30;99.90;;;;;;8388019;28;19924;-68
2022/03/15 09:07:09;;;;;;;;;;;8.40;99.90;;;;;;8386319;28;19947;-68
2022/03/15 09:11:13;;;;;;;;;;;8.40;99.90;;;;;;8389276;28;19982;-68
2022/03/15 09:15:15;;;;;;;;;;;8.50;99.90;;;;;;8389892;28;19951;-68
2022/03/15 09:19:17;;;;;;;;;;;8.60;99.90;;;;;;8382678;28;19947;-68
2022/03/15 09:23:19;;;;;;;;;;;8.70;99.90;;;;;;8381314;28;20108;-68
2022/03/15 09:27:21;;;;;;;;;;;8.80;99.90;;;;;;8383876;28;19928;-68
2022/03/15 09:31:23;;;;;;;;;;;8.90;99.90;;;;;;8382475;28;19932;-68
2022/03/15 09:35:24;;;;;;;;;;;9.00;99.90;;;;;;8420963;28;20416;-68
2022/03/15 09:39:26;;;;;;;;;;;9.10;99.90;;;;;;8408792;28;19923;-68
2022/03/15 09:43:31;;;;;;;;;;;9.20;99.90;;;;;;8425259;28;19959;-68
2022/03/15 09:47:35;;;;;;;;;;;9.30;99.90;;;;;;8398055;28;20295;-68
2022/03/15 09:51:37;;;;;;;;;;;9.30;99.90;;;;;;8405689;28;19993;-68
2022/03/15 09:55:40;;;;;;;;;;;9.40;99.90;;;;;;8423887;28;20355;-68
2022/03/15 09:59:42;;;;;;;;;;;9.50;99.90;;;;;;8422649;28;19924;-68
2022/03/15 10:03:44;;;;;;;;;;;9.50;99.90;;;;;;8394505;28;20340;-68
2022/03/15 10:07:46;;;;;;;;;;;9.50;99.90;;;;;;8413249;28;19935;-68
2022/03/15 10:11:48;;;;;;;;;;;9.60;99.90;;;;;;8398923;28;19924;-68
2022/03/15 10:15:51;;;;;;;;;;;9.60;99.90;;;;;;8402193;28;19925;-68
2022/03/15 10:19:56;;;;;;;;;;;9.80;99.90;;;;;;8421145;28;20305;-68
2022/03/15 10:23:58;;;;;;;;;;;9.80;99.90;;;;;;8406953;28;19925;-68
2022/03/15 10:28:00;;;;;;;;;;;9.90;99.90;;;;;;8419853;28;19924;-68
2022/03/15 10:32:21;;;;;;;;;;;10.00;99.90;;;;;;8394445;28;20291;-68
2022/03/15 10:36:22;;;;;;;;;;;10.00;99.90;;;;;;8410313;28;20023;-68
2022/03/15 10:40:33;;;;;;;;;;;10.10;99.90;;;;;;8401917;28;19924;-68
2022/03/15 10:44:39;;;;;;;;;;;10.10;99.90;;;;;;8412989;28;19924;-68
2022/03/15 10:48:41;;;;;;;;;;;10.20;99.90;;;;;;8428904;28;19924;-68
2022/03/15 10:52:42;;;;;;;;;;;10.30;99.90;;;;;;8428151;28;19935;-68
2022/03/15 10:56:51;;;;;;;;;;;10.30;99.90;;;;;;8430362;28;20456;-68
2022/03/15 11:00:53;;;;;;;;;;;10.40;99.90;;;;;;8430032;28;19947;-68
2022/03/15 11:04:55;;;;;;;;;;;10.50;99.90;;;;;;8434354;28;19958;-68
2022/03/15 11:08:57;;;;;;;;;;;10.60;99.90;;;;;;8437806;28;20049;-68
2022/03/15 11:13:02;;;;;;;;;;;10.70;99.90;;;;;;8421224;28;19924;-68
2022/03/15 11:17:08;;;;;;;;;;;10.80;99.90;;;;;;8400637;28;19931;-68
2022/03/15 11:21:10;;;;;;;;;;;10.80;99.90;;;;;;8423642;28;19931;-68
2022/03/15 11:25:14;;;;;;;;;;;10.90;99.90;;;;;;8433108;28;19924;-68
2022/03/15 11:29:19;;;;;;;;;;;11.00;99.90;;;;;;8423739;28;19924;-68
2022/03/15 11:33:20;;;;;;;;;;;11.00;99.90;;;;;;8414264;28;19924;-68
2022/03/15 11:37:22;;;;;;;;;;;11.10;99.90;;;;;;8430921;28;19932;-68
2022/03/15 11:41:25;;;;;;;;;;;11.20;99.90;;;;;;8420272;28;19978;-68
2022/03/15 11:45:29;;;;;;;;;;;11.30;99.90;;;;;;8423282;28;19924;-68
2022/03/15 11:49:39;;;;;;;;;;;11.50;99.90;;;;;;8405555;28;20209;-68
2022/03/15 11:53:46;;;;;;;;;;;12.30;99.90;;;;;;8398631;28;19925;-68
2022/03/15 11:57:51;;;;;;;;;;;13.50;99.90;;;;;;8400280;28;19924;-69
2022/03/15 12:01:55;;;;;;;;;;;14.70;99.90;;;;;;8425351;28;19924;-69
2022/03/15 12:05:57;;;;;;;;;;;15.90;99.90;;;;;;8428795;28;19928;-69
2022/03/15 12:09:59;;;;;;;;;;;16.80;99.90;;;;;;8407260;28;19924;-69
2022/03/15 12:14:12;;;;;;;;;;;17.20;99.90;;;;;;8399751;28;20424;-68
2022/03/15 12:22:34;;;;;;;;;;;17.90;99.90;;;;;;8422803;28;19924;-69
2022/03/15 12:26:35;;;;;;;;;;;18.40;99.90;;;;;;8424439;28;19927;-69
2022/03/15 12:30:37;;;;;;;;;;;18.80;99.90;;;;;;8421100;28;19924;-69
2022/03/15 12:34:43;;;;;;;;;;;19.00;99.90;;;;;;8426398;28;19931;-69
2022/03/15 12:38:45;;;;;;;;;;;18.80;99.90;;;;;;8403586;28;19962;-69
2022/03/15 12:42:51;;;;;;;;;;;18.80;99.90;;;;;;8415475;28;19932;-69
2022/03/15 12:46:53;;;;;;;;;;;19.40;99.90;;;;;;8398442;28;19925;-69
2022/03/15 12:50:57;;;;;;;9.70;4.30;;;20.10;99.90;;;;;;8415033;28;20514;-69
2022/03/15 12:54:59;;;;;;;;;;;20.80;99.90;;;;;;8415552;28;20538;-69
2022/03/15 12:59:01;;;;;;;;;;;20.80;99.90;;;;;;8411168;28;20224;-69
2022/03/15 13:03:04;;;;;;;;;;;20.40;99.90;;;;;;8421346;28;19943;-69
2022/03/15 13:07:06;;;;;;;;;;;19.60;99.90;;;;;;8401101;28;20065;-68
2022/03/15 13:11:08;;;;;;;;;;;19.10;99.90;;;;;;8422541;28;19920;-69
2022/03/15 13:15:20;;;;;;;;;;;18.30;99.90;;;;;;8424265;28;19929;-69
2022/03/15 13:19:26;;;;;;;;;;;18.00;99.90;;;;;;8422133;28;19948;-68
2022/03/15 13:23:28;;;;;;;;;;;17.80;99.90;;;;;;8401428;28;19927;-69
2022/03/15 13:27:37;;;;;;;;;;;17.40;99.90;;;;;;8397486;28;19919;-69
2022/03/15 13:31:40;;;;;;;10.10;5.68;;;17.20;99.90;;;;;;8397994;28;19924;-68
2022/03/15 13:35:42;;;;;;;9.68;4.57;;;17.20;99.90;;;;;;8402189;28;20405;-69
2022/03/15 13:39:44;;;;;;;;;;;17.30;99.90;;;;;;8418908;28;20051;-69
2022/03/15 13:43:46;;;;;;;;;;;17.30;99.90;;;;;;8423999;28;19975;-69
2022/03/15 13:47:49;;;;;;;;;;;17.10;99.90;;;;;;8411720;28;19919;-68
2022/03/15 13:52:00;;;;;;;;;;;16.90;99.90;;;;;;8407107;28;19920;-68
2022/03/15 13:56:08;;;;;;;;;;;16.90;99.90;;;;;;8423962;28;19920;-68
2022/03/15 14:00:13;;;;;;;;;;;16.70;99.90;;;;;;8419405;28;19920;-68
2022/03/15 14:04:17;;;;;;;;;;;16.60;99.90;;;;;;8413600;28;19920;-68
2022/03/15 14:08:19;;;;;;;;;;;16.70;99.90;;;;;;8411707;28;19920;-68
2022/03/15 14:12:21;;;;;;;;;;;16.70;99.90;;;;;;8417739;28;19923;-68
2022/03/15 14:16:39;;;;;;;;;;;16.80;99.90;;;;;;8400370;28;19924;-68
2022/03/15 14:20:44;;;;;;;;;;;16.80;99.90;;;;;;8414609;28;19969;-68
2022/03/15 14:24:46;;;;;;;;;;;16.90;99.90;;;;;;8419803;28;19999;-69
2022/03/15 14:28:56;;;;;;;;;;;17.70;99.90;;;;;;8421154;28;19927;-69
2022/03/15 14:32:59;;;;;;;;;;;19.00;99.90;;;;;;8392921;28;19935;-69
2022/03/15 14:37:12;;;;;;;6.90;3.88;;;20.00;99.90;;;;;;8398936;28;20561;-69
2022/03/15 14:41:15;;;;;;;11.05;4.65;;;21.10;99.90;;;;;;8394936;28;20044;-69
2022/03/15 14:45:20;;;;;;;6.50;3.90;;;22.00;99.90;;;;;;8400550;28;20056;-69
2022/03/15 14:49:22;;;;;;;8.90;4.57;;;22.10;99.90;;;;;;8417846;28;20422;-69
2022/03/15 14:53:28;;;;;;;7.50;4.57;;;22.20;99.90;;;;;;8400558;28;20078;-69
2022/03/15 14:57:30;;;;;;;9.60;4.90;;;22.50;99.90;;;;;;8415089;28;20047;-69
2022/03/15 15:01:32;;;;;;;6.95;4.13;;;22.50;99.90;;;;;;8417293;28;19946;-69
2022/03/15 15:05:36;;;;;;;7.10;4.50;;;22.20;99.90;;;;;;8421020;28;20044;-69
2022/03/15 15:09:39;;;;;;;;;;;22.00;99.90;;;;;;8423091;28;19920;-69
2022/03/15 15:13:40;;;;;;;7.07;4.65;;;22.20;99.90;;;;;;8426623;28;24075;-69
2022/03/15 15:17:48;;;;;;;;;;;22.50;99.90;;;;;;8407981;28;20455;-69
2022/03/15 15:21:50;;;;;;;;;;;22.40;99.90;;;;;;8414691;28;20358;-69
2022/03/15 15:25:52;;;;;;;;;;;22.30;99.90;;;;;;8424488;28;25128;-69
2022/03/15 15:29:56;;;;;;;;;;;22.30;99.90;;;;;;8419119;28;25121;-69
2022/03/15 15:33:57;;;;;;;;;;;22.30;99.90;;;;;;8428979;28;20362;-69
2022/03/15 15:38:00;;;;;;;;;;;21.90;99.90;;;;;;8431355;28;20394;-69
2022/03/15 15:42:05;;;;;;;;;;;21.60;99.90;;;;;;8427249;28;19935;-69
2022/03/15 15:46:09;;;;;;;;;;;21.20;99.90;;;;;;8418546;28;19931;-69
2022/03/15 15:50:13;;;;;;;8.63;5.32;;;21.00;99.30;;;;;;8413790;28;20342;-69
2022/03/15 15:54:14;;;;;;;8.48;5.05;;;21.10;99.00;;;;;;8403102;28;20053;-69
2022/03/15 15:58:17;;;;;;;;;;;21.00;98.80;;;;;;8412041;28;20396;-69
2022/03/15 16:02:19;;;;;;;;;;;20.90;98.20;;;;;;8398119;28;19928;-69
2022/03/15 16:06:20;;;;;;;;;;;20.80;97.80;;;;;;8422985;28;19974;-69
2022/03/15 16:10:23;;;;;;;;;;;20.70;97.00;;;;;;8407024;28;19924;-69
2022/03/15 16:14:37;;;;;;;;;;;20.40;96.40;;;;;;8426632;28;19938;-69
2022/03/15 16:18:52;;;;;;;;;;;20.10;96.40;;;;;;8426912;28;20438;-68
2022/03/15 16:22:55;;;;;;;;;;;19.90;96.90;;;;;;8426295;28;19920;-69
2022/03/15 16:26:57;;;;;;;;;;;20.10;97.10;;;;;;8410532;28;19933;-69
2022/03/15 16:31:05;;;;;;;;;;;19.90;96.30;;;;;;8413640;28;20276;-69
2022/03/15 16:35:07;;;;;;;;;;;19.50;96.00;;;;;;8406206;28;20158;-69
2022/03/15 16:39:29;;;;;;;;;;;19.50;96.40;;;;;;8404343;28;19920;-69
2022/03/15 16:43:31;;;;;;;;;;;19.40;96.00;;;;;;8387529;28;19928;-69
2022/03/15 16:47:32;;;;;;;;;;;19.20;95.40;;;;;;8390571;28;19921;-69
2022/03/15 16:51:34;;;;;;;;;;;18.80;94.90;;;;;;8387065;28;19931;-69
2022/03/15 16:55:36;;;;;;;;;;;18.30;94.60;;;;;;8386496;28;19964;-69
2022/03/15 16:59:38;;;;;;;;;;;17.70;94.40;;;;;;8371556;28;20394;-69
2022/03/15 17:08:00;;;;;;;;;;;16.90;94.50;;;;;;8386555;28;20236;-69
2022/03/15 17:12:04;;;;;;;;;;;16.60;94.80;;;;;;8398090;28;19943;-69
2022/03/15 17:16:09;;;;;;;;;;;16.50;94.90;;;;;;8378868;28;19981;-68
2022/03/15 17:20:13;;;;;;;;;;;16.40;95.00;;;;;;8404203;28;20438;-68
2022/03/15 17:24:15;;;;;;;;;;;16.20;95.00;;;;;;8393141;28;19931;-69
2022/03/15 17:28:17;;;;;;;;;;;16.00;95.00;;;;;;8369919;28;19924;-69
2022/03/15 17:32:24;;;;;;;8.73;5.25;;;15.80;95.00;;;;;;8403265;28;19957;-69
2022/03/15 17:36:26;;;;;;;;;;;15.60;95.00;;;;;;8391910;28;20044;-69
2022/03/15 17:40:37;;;;;;;;;;;15.40;95.10;;;;;;8365164;28;20287;-68
2022/03/15 17:44:49;;;;;;;;;;;15.20;95.10;;;;;;8371310;28;20038;-68
2022/03/15 17:49:03;;;;;;;;;;;14.90;95.10;;;;;;8398431;28;20375;-69
2022/03/15 17:53:05;;;;;;;8.90;5.15;;;14.70;95.20;;;;;;8390838;28;20379;-70
2022/03/15 17:57:17;;;;;;;12.25;5.63;;;14.40;95.30;;;;;;8383564;28;20060;-71
2022/03/15 18:01:19;;;;;;;13.50;5.68;;;14.30;95.40;;;;;;8367740;28;20366;-71
2022/03/15 18:05:22;;;;;;;9.80;5.85;;;14.10;95.40;;;;;;8384445;28;20139;-71
2022/03/15 18:09:24;;;;;;;;;;;13.90;95.50;;;;;;8375322;28;20419;-71
2022/03/15 18:13:35;;;;;;;;;;;13.80;95.60;;;;;;8385685;28;19920;-70
2022/03/15 18:17:40;;;;;;;;;;;13.70;95.70;;;;;;8389074;28;20265;-70
2022/03/15 18:21:43;;;;;;;;;;;13.50;95.60;;;;;;8392128;28;20304;-71
2022/03/15 18:25:46;;;;;;;;;;;13.40;95.60;;;;;;8368897;28;19920;-71
2022/03/15 18:29:47;;;;;;;;;;;13.20;95.70;;;;;;8383822;28;20368;-70
2022/03/15 18:33:55;;;;;;;;;;;13.00;95.80;;;;;;8401991;28;19942;-70
2022/03/15 18:37:57;;;;;;;;;;;12.90;95.90;;;;;;8392100;28;19970;-70
2022/03/15 18:42:01;;;;;;;;;;;12.70;95.90;;;;;;8405121;28;19924;-70
2022/03/15 18:46:07;;;;;;;;;;;12.60;95.90;;;;;;8370309;28;19920;-70
2022/03/15 18:50:09;;;;;;;;;;;12.50;95.90;;;;;;8383696;28;19936;-70
2022/03/15 18:54:12;;;;;;;;;;;12.40;95.90;;;;;;8386389;28;19920;-70
2022/03/15 18:58:15;;;;;;;;;;;12.20;95.90;;;;;;8385877;28;19971;-70
2022/03/15 19:02:17;;;;;;;;;;;12.10;95.90;;;;;;8387324;28;19933;-70
2022/03/15 19:06:19;;;;;;;;;;;11.90;96.00;;;;;;8398052;28;19943;-70
2022/03/15 19:10:21;;;;;;;;;;;11.70;96.00;;;;;;8390427;28;20223;-70
2022/03/15 19:14:23;;;;;;;;;;;11.60;96.10;;;;;;8390892;28;20375;-70
2022/03/15 19:18:25;;;;;;;;;;;11.50;96.30;;;;;;8389535;28;20333;-70
2022/03/15 19:22:27;;;;;;;;;;;11.40;96.30;;;;;;8393934;28;19932;-70
2022/03/15 19:26:29;;;;;;;;;;;11.30;96.30;;;;;;8392676;28;20024;-70
2022/03/15 19:30:31;;;;;;;;;;;11.20;96.40;;;;;;8387682;28;19925;-70
2022/03/15 19:34:35;;;;;;;;;;;11.10;96.30;;;;;;8391512;28;19927;-70
2022/03/15 19:38:36;;;;;;;;;;;10.90;96.40;;;;;;8380820;28;19947;-70
2022/03/15 19:42:39;;;;;;;;;;;10.70;96.40;;;;;;8394750;28;19920;-70
2022/03/15 19:46:44;;;;;;;;;;;10.50;96.50;;;;;;8406418;28;20000;-70
2022/03/15 19:50:47;;;;;;;;;;;10.40;96.60;;;;;;8372683;28;20279;-70
2022/03/15 19:54:49;;;;;;;;;;;10.40;96.70;;;;;;8380725;28;19947;-70
2022/03/15 19:58:54;;;;;;;;;;;10.40;96.70;;;;;;8394917;28;19924;-70
2022/03/15 20:02:56;;;;;;;;;;;10.30;96.90;;;;;;8394389;28;19936;-70
2022/03/15 20:06:59;;;;;;;;;;;10.30;96.70;;;;;;8393045;28;19924;-69
2022/03/15 20:11:01;;;;;;;;;;;10.20;96.70;;;;;;8389779;28;20331;-70
2022/03/15 20:15:04;;;;;;;;;;;10.20;96.80;;;;;;8389146;28;19960;-70
2022/03/15 20:19:10;;;;;;;;;;;10.10;96.70;;;;;;8383133;28;20012;-70
2022/03/15 20:23:15;;;;;;;;;;;10.00;96.80;;;;;;8373529;28;19935;-70
2022/03/15 20:27:17;;;;;;;;;;;9.90;97.20;;;;;;8370849;28;19935;-70
2022/03/15 20:31:19;;;;;;;;;;;9.80;97.20;;;;;;8372070;28;19955;-70
2022/03/15 20:35:23;;;;;;;;;;;9.70;97.30;;;;;;8393657;28;20379;-70
2022/03/15 20:39:25;;;;;;;;;;;9.60;97.30;;;;;;8376273;28;19924;-70
2022/03/15 20:47:48;;;;;;;;;;;9.60;97.30;;;;;;8391337;28;19924;-70
2022/03/15 20:51:50;;;;;;;;;;;9.50;97.30;;;;;;8373753;28;19935;-70
2022/03/15 20:55:53;;;;;;;;;;;9.40;97.20;;;;;;8389008;28;20236;-69
2022/03/15 20:59:55;;;;;;;;;;;9.40;97.20;;;;;;8394281;28;19924;-70
2022/03/15 21:03:58;;;;;;;;;;;9.30;97.20;;;;;;8393286;28;19928;-70
2022/03/15 21:07:59;;;;;;;;;;;9.20;97.20;;;;;;8389649;28;20019;-70
2022/03/15 21:12:09;;;;;;;;;;;9.10;97.20;;;;;;8385707;28;19931;-70
2022/03/15 21:16:11;;;;;;;;;;;9.00;97.30;;;;;;8385301;28;19963;-70
2022/03/15 21:20:15;;;;;;;;;;;8.90;97.40;;;;;;8385048;28;19968;-70
2022/03/15 21:24:17;;;;;;;;;;;8.80;97.40;;;;;;8385934;28;19928;-70
2022/03/15 21:28:20;;;;;;;;;;;8.70;97.50;;;;;;8386217;28;19928;-70
2022/03/15 21:32:22;;;;;;;;;;;8.70;97.80;;;;;;8385022;28;19920;-70
2022/03/15 21:36:24;;;;;;;;;;;8.60;97.50;;;;;;8366485;28;19957;-70
2022/03/15 21:40:29;;;;;;;;;;;8.50;97.60;;;;;;8382733;28;19965;-70
2022/03/15 21:44:48;;;;;;;;;;;8.40;97.80;;;;;;8383850;28;19937;-70
2022/03/15 21:48:55;;;;;;;;;;;8.30;97.60;;;;;;8381867;28;19920;-70
2022/03/15 21:53:01;;;;;;;;;;;8.20;97.60;;;;;;8383158;28;20683;-70
2022/03/15 21:57:11;;;;;;;;;;;8.20;97.60;;;;;;8378562;28;19928;-70
2022/03/15 22:01:13;;;;;;;;;;;8.10;97.70;;;;;;8391269;28;19920;-70
2022/03/15 22:05:20;;;;;;;;;;;8.00;97.70;;;;;;8393128;28;20007;-70
2022/03/15 22:09:22;;;;;;;;;;;8.00;97.70;;;;;;8395208;28;19920;-70
2022/03/15 22:13:24;;;;;;;;;;;8.00;97.80;;;;;;8405473;28;20317;-70
2022/03/15 22:21:46;;;;;;;;;;;7.80;97.80;;;;;;8407136;28;20032;-70
2022/03/15 22:25:47;;;;;;;;;;;7.80;97.90;;;;;;8386808;28;19984;-70
2022/03/15 22:29:49;;;;;;;;;;;7.80;97.90;;;;;;8406206;28;19920;-70
2022/03/15 23:17:26;;;;;;;;;;;7.20;97.80;;;;;;8399993;28;19928;-70
2022/03/15 23:25:49;;;;;;;;;;;6.90;97.80;;;;;;8410120;28;19928;-70
2022/03/15 23:29:51;;;;;;;;;;;6.90;97.80;;;;;;8380529;28;20375;-70
2022/03/15 23:33:52;;;;;;;;;;;6.90;97.80;;;;;;8396944;28;19920;-70
2022/03/15 23:37:55;;;;;;;;;;;6.80;97.80;;;;;;8400345;28;20386;-70
2022/03/15 23:41:56;;;;;;;;;;;6.80;97.90;;;;;;8399376;28;19925;-70
2022/03/15 23:45:59;;;;;;;;;;;6.80;97.90;;;;;;8408798;28;19943;-70
2022/03/15 23:50:00;;;;;;;;;;;6.70;98.00;;;;;;8404195;28;19927;-70
2022/03/15 23:54:02;;;;;;;;;;;6.70;98.00;;;;;;8407903;28;19920;-70
2022/03/15 23:58:03;;;;;;;;;;;6.60;98.00;;;;;;8394182;28;19920;-70
